sensor_id;sensor_type;location;lat;lon;timestamp;P1;durP1;ratioP1;P2;durP2;ratioP2
4595;SDS011;2310;49.978;8.742;2024-03-02T00:02:22;12.40;;;10.50;;
4595;SDS011;2310;49.978;8.742;2024-03-02T00:06:23;12.50;;;11.00;;
4595;SDS011;2310;49.978;8.742;2024-03-02T00:10:25;11.80;;;10.60;;
4595;SDS011;2310;49.978;8.742;2024-03-02T00:14:30;12.27;;;10.40;;
4595;SDS011;2310;49.978;8.742;2024-03-02T00:18:32;13.07;;;10.33;;
4595;SDS011;2310;49.978;8.742;2024-03-02T00:22:35;12.57;;;10.40;;
4595;SDS011;2310;49.978;8.742;2024-03-02T00:26:38;15.43;;;12.17;;
4595;SDS011;2310;49.978;8.742;2024-03-02T00:31:25;13.10;;;11.70;;
4595;SDS011;2310;49.978;8.742;2024-03-02T00:34:59;13.93;;;12.17;;
4595;SDS011;2310;49.978;8.742;2024-03-02T00:39:01;16.63;;;12.23;;
4595;SDS011;2310;49.978;8.742;2024-03-02T00:43:03;13.87;;;11.80;;
4595;SDS011;2310;49.978;8.742;2024-03-02T00:47:05;19.73;;;13.97;;
4595;SDS011;2310;49.978;8.742;2024-03-02T00:51:06;21.63;;;15.63;;
4595;SDS011;2310;49.978;8.742;2024-03-02T00:55:09;17.53;;;13.50;;
4595;SDS011;2310;49.978;8.742;2024-03-02T00:59:10;19.33;;;14.47;;
4595;SDS011;2310;49.978;8.742;2024-03-02T01:03:12;20.67;;;16.47;;
4595;SDS011;2310;49.978;8.742;2024-03-02T01:07:13;16.73;;;13.93;;
4595;SDS011;2310;49.978;8.742;2024-03-02T01:11:15;20.17;;;13.70;;
4595;SDS011;2310;49.978;8.742;2024-03-02T01:15:16;17.30;;;15.37;;
4595;SDS011;2310;49.978;8.742;2024-03-02T01:19:17;19.43;;;14.60;;
4595;SDS011;2310;49.978;8.742;2024-03-02T01:23:19;18.00;;;14.80;;
4595;SDS011;2310;49.978;8.742;2024-03-02T01:27:21;20.00;;;14.23;;
4595;SDS011;2310;49.978;8.742;2024-03-02T01:31:22;17.67;;;13.80;;
4595;SDS011;2310;49.978;8.742;2024-03-02T01:35:24;17.73;;;14.37;;
4595;SDS011;2310;49.978;8.742;2024-03-02T01:39:26;17.93;;;14.00;;
4595;SDS011;2310;49.978;8.742;2024-03-02T01:43:27;18.03;;;14.43;;
4595;SDS011;2310;49.978;8.742;2024-03-02T01:47:28;20.03;;;14.20;;
4595;SDS011;2310;49.978;8.742;2024-03-02T01:51:30;20.77;;;15.00;;
4595;SDS011;2310;49.978;8.742;2024-03-02T01:55:31;17.60;;;15.17;;
4595;SDS011;2310;49.978;8.742;2024-03-02T01:59:34;18.63;;;15.03;;
4595;SDS011;2310;49.978;8.742;2024-03-02T02:03:35;22.37;;;18.03;;
4595;SDS011;2310;49.978;8.742;2024-03-02T02:07:38;21.17;;;16.30;;
4595;SDS011;2310;49.978;8.742;2024-03-02T02:11:39;20.23;;;16.60;;
4595;SDS011;2310;49.978;8.742;2024-03-02T02:15:40;26.47;;;16.70;;
4595;SDS011;2310;49.978;8.742;2024-03-02T02:19:42;21.67;;;17.40;;
4595;SDS011;2310;49.978;8.742;2024-03-02T02:23:43;21.90;;;16.83;;
4595;SDS011;2310;49.978;8.742;2024-03-02T02:27:47;24.40;;;18.17;;
4595;SDS011;2310;49.978;8.742;2024-03-02T02:31:48;22.13;;;17.20;;
4595;SDS011;2310;49.978;8.742;2024-03-02T02:35:49;18.50;;;16.33;;
4595;SDS011;2310;49.978;8.742;2024-03-02T02:39:51;24.70;;;17.90;;
4595;SDS011;2310;49.978;8.742;2024-03-02T02:43:52;21.20;;;16.50;;
4595;SDS011;2310;49.978;8.742;2024-03-02T02:47:54;21.30;;;15.70;;
4595;SDS011;2310;49.978;8.742;2024-03-02T02:51:55;18.33;;;15.73;;
4595;SDS011;2310;49.978;8.742;2024-03-02T02:55:56;21.87;;;16.87;;
4595;SDS011;2310;49.978;8.742;2024-03-02T02:59:58;18.23;;;13.90;;
4595;SDS011;2310;49.978;8.742;2024-03-02T03:04:00;21.17;;;16.77;;
4595;SDS011;2310;49.978;8.742;2024-03-02T03:08:01;22.53;;;17.70;;
4595;SDS011;2310;49.978;8.742;2024-03-02T03:12:03;19.30;;;15.73;;
4595;SDS011;2310;49.978;8.742;2024-03-02T03:16:05;27.43;;;18.17;;
4595;SDS011;2310;49.978;8.742;2024-03-02T03:20:07;23.13;;;18.60;;
4595;SDS011;2310;49.978;8.742;2024-03-02T03:24:12;18.30;;;15.03;;
4595;SDS011;2310;49.978;8.742;2024-03-02T03:28:13;23.73;;;18.33;;
4595;SDS011;2310;49.978;8.742;2024-03-02T03:32:15;21.40;;;16.07;;
4595;SDS011;2310;49.978;8.742;2024-03-02T03:36:17;22.07;;;16.47;;
4595;SDS011;2310;49.978;8.742;2024-03-02T03:40:19;22.47;;;17.37;;
4595;SDS011;2310;49.978;8.742;2024-03-02T03:44:20;23.80;;;18.37;;
4595;SDS011;2310;49.978;8.742;2024-03-02T03:48:21;21.20;;;15.50;;
4595;SDS011;2310;49.978;8.742;2024-03-02T03:52:23;20.30;;;15.27;;
4595;SDS011;2310;49.978;8.742;2024-03-02T03:56:24;22.70;;;16.77;;
4595;SDS011;2310;49.978;8.742;2024-03-02T04:00:26;21.53;;;17.53;;
4595;SDS011;2310;49.978;8.742;2024-03-02T04:04:27;21.63;;;17.70;;
4595;SDS011;2310;49.978;8.742;2024-03-02T04:08:28;19.70;;;15.67;;
4595;SDS011;2310;49.978;8.742;2024-03-02T04:12:29;20.90;;;16.03;;
4595;SDS011;2310;49.978;8.742;2024-03-02T04:16:31;19.27;;;16.33;;
4595;SDS011;2310;49.978;8.742;2024-03-02T04:20:32;18.23;;;13.90;;
4595;SDS011;2310;49.978;8.742;2024-03-02T04:24:34;19.60;;;15.00;;
4595;SDS011;2310;49.978;8.742;2024-03-02T04:28:35;23.57;;;17.20;;
4595;SDS011;2310;49.978;8.742;2024-03-02T04:32:36;27.47;;;20.40;;
4595;SDS011;2310;49.978;8.742;2024-03-02T04:36:40;26.67;;;19.73;;
4595;SDS011;2310;49.978;8.742;2024-03-02T04:40:41;23.43;;;19.73;;
4595;SDS011;2310;49.978;8.742;2024-03-02T04:44:42;22.90;;;17.30;;
4595;SDS011;2310;49.978;8.742;2024-03-02T04:48:44;29.67;;;21.33;;
4595;SDS011;2310;49.978;8.742;2024-03-02T04:52:45;25.97;;;20.87;;
4595;SDS011;2310;49.978;8.742;2024-03-02T04:56:46;23.60;;;19.60;;
4595;SDS011;2310;49.978;8.742;2024-03-02T05:00:51;23.00;;;17.10;;
4595;SDS011;2310;49.978;8.742;2024-03-02T05:04:52;24.80;;;19.20;;
4595;SDS011;2310;49.978;8.742;2024-03-02T05:08:54;21.07;;;17.50;;
4595;SDS011;2310;49.978;8.742;2024-03-02T05:12:55;22.63;;;18.20;;
4595;SDS011;2310;49.978;8.742;2024-03-02T05:16:58;20.23;;;16.60;;
4595;SDS011;2310;49.978;8.742;2024-03-02T05:20:59;26.77;;;18.10;;
4595;SDS011;2310;49.978;8.742;2024-03-02T05:25:01;22.33;;;17.77;;
4595;SDS011;2310;49.978;8.742;2024-03-02T05:29:03;24.27;;;17.63;;
4595;SDS011;2310;49.978;8.742;2024-03-02T05:33:04;25.93;;;18.40;;
4595;SDS011;2310;49.978;8.742;2024-03-02T05:37:06;21.53;;;17.77;;
4595;SDS011;2310;49.978;8.742;2024-03-02T05:41:08;24.20;;;18.40;;
4595;SDS011;2310;49.978;8.742;2024-03-02T05:45:09;20.27;;;17.93;;
4595;SDS011;2310;49.978;8.742;2024-03-02T05:49:10;25.90;;;18.07;;
4595;SDS011;2310;49.978;8.742;2024-03-02T05:53:12;22.10;;;17.47;;
4595;SDS011;2310;49.978;8.742;2024-03-02T05:57:13;20.33;;;16.00;;
4595;SDS011;2310;49.978;8.742;2024-03-02T06:01:19;21.57;;;16.30;;
4595;SDS011;2310;49.978;8.742;2024-03-02T06:05:22;20.23;;;15.90;;
4595;SDS011;2310;49.978;8.742;2024-03-02T06:09:23;20.53;;;15.67;;
4595;SDS011;2310;49.978;8.742;2024-03-02T06:13:25;20.03;;;16.77;;
4595;SDS011;2310;49.978;8.742;2024-03-02T06:17:27;22.63;;;17.23;;
4595;SDS011;2310;49.978;8.742;2024-03-02T06:21:29;24.27;;;17.63;;
4595;SDS011;2310;49.978;8.742;2024-03-02T06:25:31;21.83;;;16.63;;
4595;SDS011;2310;49.978;8.742;2024-03-02T06:29:32;23.13;;;16.80;;
4595;SDS011;2310;49.978;8.742;2024-03-02T06:33:36;24.57;;;18.50;;
4595;SDS011;2310;49.978;8.742;2024-03-02T06:37:38;20.00;;;16.23;;
4595;SDS011;2310;49.978;8.742;2024-03-02T06:41:40;22.57;;;17.47;;
4595;SDS011;2310;49.978;8.742;2024-03-02T06:45:41;24.47;;;18.73;;
4595;SDS011;2310;49.978;8.742;2024-03-02T06:49:42;31.53;;;23.20;;
4595;SDS011;2310;49.978;8.742;2024-03-02T06:53:44;30.60;;;23.70;;
4595;SDS011;2310;49.978;8.742;2024-03-02T06:57:45;28.40;;;21.20;;
4595;SDS011;2310;49.978;8.742;2024-03-02T07:01:47;21.50;;;18.03;;
4595;SDS011;2310;49.978;8.742;2024-03-02T07:05:48;20.10;;;15.77;;
4595;SDS011;2310;49.978;8.742;2024-03-02T07:09:50;22.80;;;15.77;;
4595;SDS011;2310;49.978;8.742;2024-03-02T07:13:51;23.37;;;16.80;;
4595;SDS011;2310;49.978;8.742;2024-03-02T07:17:52;20.70;;;16.70;;
4595;SDS011;2310;49.978;8.742;2024-03-02T07:21:54;17.47;;;15.50;;
4595;SDS011;2310;49.978;8.742;2024-03-02T07:25:55;20.23;;;15.60;;
4595;SDS011;2310;49.978;8.742;2024-03-02T07:29:59;20.60;;;17.00;;
4595;SDS011;2310;49.978;8.742;2024-03-02T07:34:00;22.40;;;17.33;;
4595;SDS011;2310;49.978;8.742;2024-03-02T07:38:03;23.60;;;13.97;;
4595;SDS011;2310;49.978;8.742;2024-03-02T07:42:05;23.27;;;17.53;;
4595;SDS011;2310;49.978;8.742;2024-03-02T07:46:07;22.73;;;19.87;;
4595;SDS011;2310;49.978;8.742;2024-03-02T07:50:08;26.70;;;21.03;;
4595;SDS011;2310;49.978;8.742;2024-03-02T07:54:10;21.67;;;15.97;;
4595;SDS011;2310;49.978;8.742;2024-03-02T07:58:12;24.43;;;16.13;;
4595;SDS011;2310;49.978;8.742;2024-03-02T08:02:14;16.70;;;14.40;;
4595;SDS011;2310;49.978;8.742;2024-03-02T08:06:15;17.63;;;15.37;;
4595;SDS011;2310;49.978;8.742;2024-03-02T08:10:19;17.43;;;14.87;;
4595;SDS011;2310;49.978;8.742;2024-03-02T08:14:20;18.27;;;14.30;;
4595;SDS011;2310;49.978;8.742;2024-03-02T08:18:21;16.47;;;14.43;;
4595;SDS011;2310;49.978;8.742;2024-03-02T08:22:23;15.60;;;14.00;;
4595;SDS011;2310;49.978;8.742;2024-03-02T08:26:28;16.60;;;14.10;;
4595;SDS011;2310;49.978;8.742;2024-03-02T08:30:32;17.90;;;15.00;;
4595;SDS011;2310;49.978;8.742;2024-03-02T08:34:34;18.97;;;15.03;;
4595;SDS011;2310;49.978;8.742;2024-03-02T08:38:36;18.90;;;15.00;;
4595;SDS011;2310;49.978;8.742;2024-03-02T08:42:37;19.53;;;14.80;;
4595;SDS011;2310;49.978;8.742;2024-03-02T08:46:39;22.90;;;18.37;;
4595;SDS011;2310;49.978;8.742;2024-03-02T08:50:41;18.17;;;16.07;;
4595;SDS011;2310;49.978;8.742;2024-03-02T08:54:42;19.00;;;16.80;;
4595;SDS011;2310;49.978;8.742;2024-03-02T08:58:43;17.07;;;14.40;;
4595;SDS011;2310;49.978;8.742;2024-03-02T09:02:45;18.87;;;15.37;;
4595;SDS011;2310;49.978;8.742;2024-03-02T09:06:46;16.90;;;13.97;;
4595;SDS011;2310;49.978;8.742;2024-03-02T09:10:48;22.83;;;20.43;;
4595;SDS011;2310;49.978;8.742;2024-03-02T09:14:49;20.63;;;17.90;;
4595;SDS011;2310;49.978;8.742;2024-03-02T09:18:50;17.27;;;14.63;;
4595;SDS011;2310;49.978;8.742;2024-03-02T09:22:52;15.23;;;13.53;;
4595;SDS011;2310;49.978;8.742;2024-03-02T09:26:53;23.43;;;18.70;;
4595;SDS011;2310;49.978;8.742;2024-03-02T09:30:55;21.73;;;16.10;;
4595;SDS011;2310;49.978;8.742;2024-03-02T09:34:58;16.97;;;14.10;;
4595;SDS011;2310;49.978;8.742;2024-03-02T09:39:00;16.17;;;14.03;;
4595;SDS011;2310;49.978;8.742;2024-03-02T09:43:01;15.50;;;13.13;;
4595;SDS011;2310;49.978;8.742;2024-03-02T09:47:04;15.37;;;13.50;;
4595;SDS011;2310;49.978;8.742;2024-03-02T09:51:07;16.37;;;13.53;;
4595;SDS011;2310;49.978;8.742;2024-03-02T09:55:09;16.00;;;13.37;;
4595;SDS011;2310;49.978;8.742;2024-03-02T09:59:12;14.83;;;13.33;;
4595;SDS011;2310;49.978;8.742;2024-03-02T10:03:16;16.97;;;13.90;;
4595;SDS011;2310;49.978;8.742;2024-03-02T10:07:20;16.50;;;13.57;;
4595;SDS011;2310;49.978;8.742;2024-03-02T10:11:25;15.43;;;12.63;;
4595;SDS011;2310;49.978;8.742;2024-03-02T10:15:35;14.57;;;11.63;;
4595;SDS011;2310;49.978;8.742;2024-03-02T10:19:44;14.07;;;12.50;;
4595;SDS011;2310;49.978;8.742;2024-03-02T10:23:45;12.70;;;10.70;;
4595;SDS011;2310;49.978;8.742;2024-03-02T10:27:47;14.70;;;12.00;;
4595;SDS011;2310;49.978;8.742;2024-03-02T10:31:51;13.63;;;11.60;;
4595;SDS011;2310;49.978;8.742;2024-03-02T10:35:52;12.10;;;10.83;;
4595;SDS011;2310;49.978;8.742;2024-03-02T10:39:53;13.43;;;10.87;;
4595;SDS011;2310;49.978;8.742;2024-03-02T10:43:55;12.80;;;11.37;;
4595;SDS011;2310;49.978;8.742;2024-03-02T10:47:59;12.60;;;10.80;;
4595;SDS011;2310;49.978;8.742;2024-03-02T10:52:03;12.10;;;10.80;;
4595;SDS011;2310;49.978;8.742;2024-03-02T10:56:05;14.27;;;11.47;;
4595;SDS011;2310;49.978;8.742;2024-03-02T11:00:11;12.77;;;11.27;;
4595;SDS011;2310;49.978;8.742;2024-03-02T11:04:19;13.50;;;11.27;;
4595;SDS011;2310;49.978;8.742;2024-03-02T11:08:19;10.33;;;8.60;;
4595;SDS011;2310;49.978;8.742;2024-03-02T11:16:32;13.40;;;9.60;;
4595;SDS011;2310;49.978;8.742;2024-03-02T11:20:39;13.03;;;9.30;;
4595;SDS011;2310;49.978;8.742;2024-03-02T11:24:48;10.10;;;9.00;;
4595;SDS011;2310;49.978;8.742;2024-03-02T11:28:51;10.37;;;9.27;;
4595;SDS011;2310;49.978;8.742;2024-03-02T11:32:55;11.63;;;9.97;;
4595;SDS011;2310;49.978;8.742;2024-03-02T11:36:57;9.43;;;8.40;;
4595;SDS011;2310;49.978;8.742;2024-03-02T11:41:03;11.10;;;8.30;;
4595;SDS011;2310;49.978;8.742;2024-03-02T11:45:12;11.60;;;8.10;;
4595;SDS011;2310;49.978;8.742;2024-03-02T11:53:42;10.47;;;9.37;;
4595;SDS011;2310;49.978;8.742;2024-03-02T11:57:46;9.53;;;8.27;;
4595;SDS011;2310;49.978;8.742;2024-03-02T12:01:47;11.40;;;9.27;;
4595;SDS011;2310;49.978;8.742;2024-03-02T12:05:50;8.20;;;7.20;;
4595;SDS011;2310;49.978;8.742;2024-03-02T12:10:00;9.93;;;7.73;;
4595;SDS011;2310;49.978;8.742;2024-03-02T12:14:11;11.30;;;8.00;;
4595;SDS011;2310;49.978;8.742;2024-03-02T12:18:15;10.30;;;7.10;;
4595;SDS011;2310;49.978;8.742;2024-03-02T12:22:16;9.13;;;7.40;;
4595;SDS011;2310;49.978;8.742;2024-03-02T12:26:18;8.47;;;7.57;;
4595;SDS011;2310;49.978;8.742;2024-03-02T12:30:21;7.10;;;4.90;;
4595;SDS011;2310;49.978;8.742;2024-03-02T12:34:23;8.00;;;5.13;;
4595;SDS011;2310;49.978;8.742;2024-03-02T12:38:25;6.80;;;4.77;;
4595;SDS011;2310;49.978;8.742;2024-03-02T12:42:27;8.20;;;4.53;;
4595;SDS011;2310;49.978;8.742;2024-03-02T12:46:29;6.50;;;4.40;;
4595;SDS011;2310;49.978;8.742;2024-03-02T12:50:30;6.87;;;5.30;;
4595;SDS011;2310;49.978;8.742;2024-03-02T12:54:32;8.63;;;4.00;;
4595;SDS011;2310;49.978;8.742;2024-03-02T12:58:40;6.13;;;4.53;;
4595;SDS011;2310;49.978;8.742;2024-03-02T13:02:45;5.70;;;3.90;;
4595;SDS011;2310;49.978;8.742;2024-03-02T13:06:47;7.10;;;4.63;;
4595;SDS011;2310;49.978;8.742;2024-03-02T13:10:49;8.80;;;5.83;;
4595;SDS011;2310;49.978;8.742;2024-03-02T13:14:53;6.37;;;4.43;;
4595;SDS011;2310;49.978;8.742;2024-03-02T13:18:55;7.60;;;5.13;;
4595;SDS011;2310;49.978;8.742;2024-03-02T13:22:57;7.50;;;4.97;;
4595;SDS011;2310;49.978;8.742;2024-03-02T13:26:58;6.30;;;4.17;;
4595;SDS011;2310;49.978;8.742;2024-03-02T13:31:00;6.80;;;4.10;;
4595;SDS011;2310;49.978;8.742;2024-03-02T13:35:02;6.23;;;3.90;;
4595;SDS011;2310;49.978;8.742;2024-03-02T13:39:04;7.00;;;4.43;;
4595;SDS011;2310;49.978;8.742;2024-03-02T13:43:10;6.13;;;3.90;;
4595;SDS011;2310;49.978;8.742;2024-03-02T13:47:13;6.77;;;3.83;;
4595;SDS011;2310;49.978;8.742;2024-03-02T13:51:14;4.57;;;2.97;;
4595;SDS011;2310;49.978;8.742;2024-03-02T13:55:16;7.40;;;4.20;;
4595;SDS011;2310;49.978;8.742;2024-03-02T13:59:17;5.20;;;3.80;;
4595;SDS011;2310;49.978;8.742;2024-03-02T14:03:19;7.20;;;3.80;;
4595;SDS011;2310;49.978;8.742;2024-03-02T14:07:20;7.10;;;4.67;;
4595;SDS011;2310;49.978;8.742;2024-03-02T14:11:21;6.10;;;4.00;;
4595;SDS011;2310;49.978;8.742;2024-03-02T14:15:23;6.80;;;4.30;;
4595;SDS011;2310;49.978;8.742;2024-03-02T14:19:25;5.80;;;3.80;;
4595;SDS011;2310;49.978;8.742;2024-03-02T14:23:27;5.60;;;4.00;;
4595;SDS011;2310;49.978;8.742;2024-03-02T14:27:30;5.90;;;4.13;;
4595;SDS011;2310;49.978;8.742;2024-03-02T14:31:33;6.47;;;3.33;;
4595;SDS011;2310;49.978;8.742;2024-03-02T14:35:35;6.37;;;3.17;;
4595;SDS011;2310;49.978;8.742;2024-03-02T14:39:36;6.20;;;2.97;;
4595;SDS011;2310;49.978;8.742;2024-03-02T14:43:37;5.63;;;3.47;;
4595;SDS011;2310;49.978;8.742;2024-03-02T14:47:39;5.03;;;2.73;;
4595;SDS011;2310;49.978;8.742;2024-03-02T14:51:40;5.17;;;2.77;;
4595;SDS011;2310;49.978;8.742;2024-03-02T14:55:42;5.30;;;2.67;;
4595;SDS011;2310;49.978;8.742;2024-03-02T14:59:43;5.67;;;2.87;;
4595;SDS011;2310;49.978;8.742;2024-03-02T15:03:44;4.57;;;2.63;;
4595;SDS011;2310;49.978;8.742;2024-03-02T15:07:46;8.47;;;3.90;;
4595;SDS011;2310;49.978;8.742;2024-03-02T15:11:47;4.20;;;2.33;;
4595;SDS011;2310;49.978;8.742;2024-03-02T15:15:49;3.70;;;1.90;;
4595;SDS011;2310;49.978;8.742;2024-03-02T15:19:50;9.00;;;3.60;;
4595;SDS011;2310;49.978;8.742;2024-03-02T15:23:51;4.93;;;2.63;;
4595;SDS011;2310;49.978;8.742;2024-03-02T15:27:53;6.00;;;3.20;;
4595;SDS011;2310;49.978;8.742;2024-03-02T15:31:54;4.77;;;2.60;;
4595;SDS011;2310;49.978;8.742;2024-03-02T15:35:56;5.27;;;3.20;;
4595;SDS011;2310;49.978;8.742;2024-03-02T15:40:00;6.20;;;3.87;;
4595;SDS011;2310;49.978;8.742;2024-03-02T15:44:06;7.17;;;4.03;;
4595;SDS011;2310;49.978;8.742;2024-03-02T15:48:08;6.00;;;3.37;;
4595;SDS011;2310;49.978;8.742;2024-03-02T15:52:10;6.30;;;3.70;;
4595;SDS011;2310;49.978;8.742;2024-03-02T15:56:11;5.80;;;3.30;;
4595;SDS011;2310;49.978;8.742;2024-03-02T16:00:13;5.20;;;3.30;;
4595;SDS011;2310;49.978;8.742;2024-03-02T16:04:15;5.00;;;3.17;;
4595;SDS011;2310;49.978;8.742;2024-03-02T16:08:17;6.40;;;4.23;;
4595;SDS011;2310;49.978;8.742;2024-03-02T16:12:18;7.70;;;4.40;;
4595;SDS011;2310;49.978;8.742;2024-03-02T16:16:20;6.20;;;4.10;;
4595;SDS011;2310;49.978;8.742;2024-03-02T16:20:21;6.67;;;3.87;;
4595;SDS011;2310;49.978;8.742;2024-03-02T16:24:23;7.50;;;4.50;;
4595;SDS011;2310;49.978;8.742;2024-03-02T16:28:24;6.40;;;3.87;;
4595;SDS011;2310;49.978;8.742;2024-03-02T16:32:25;5.63;;;3.87;;
4595;SDS011;2310;49.978;8.742;2024-03-02T16:36:27;9.33;;;4.73;;
4595;SDS011;2310;49.978;8.742;2024-03-02T16:40:29;7.10;;;4.33;;
4595;SDS011;2310;49.978;8.742;2024-03-02T16:44:32;6.17;;;4.57;;
4595;SDS011;2310;49.978;8.742;2024-03-02T16:48:33;6.57;;;4.70;;
4595;SDS011;2310;49.978;8.742;2024-03-02T16:52:35;5.30;;;4.23;;
4595;SDS011;2310;49.978;8.742;2024-03-02T16:56:39;6.00;;;3.77;;
4595;SDS011;2310;49.978;8.742;2024-03-02T17:00:41;5.50;;;3.70;;
4595;SDS011;2310;49.978;8.742;2024-03-02T17:04:43;8.00;;;4.17;;
4595;SDS011;2310;49.978;8.742;2024-03-02T17:08:44;6.27;;;4.10;;
4595;SDS011;2310;49.978;8.742;2024-03-02T17:12:45;7.13;;;4.07;;
4595;SDS011;2310;49.978;8.742;2024-03-02T17:16:47;14.07;;;11.53;;
4595;SDS011;2310;49.978;8.742;2024-03-02T17:20:48;21.00;;;18.70;;
4595;SDS011;2310;49.978;8.742;2024-03-02T17:24:50;19.23;;;16.77;;
4595;SDS011;2310;49.978;8.742;2024-03-02T17:28:53;12.33;;;10.50;;
4595;SDS011;2310;49.978;8.742;2024-03-02T17:32:55;8.07;;;6.30;;
4595;SDS011;2310;49.978;8.742;2024-03-02T17:36:57;8.43;;;5.40;;
4595;SDS011;2310;49.978;8.742;2024-03-02T17:40:58;7.40;;;5.10;;
4595;SDS011;2310;49.978;8.742;2024-03-02T17:45:00;6.80;;;4.70;;
4595;SDS011;2310;49.978;8.742;2024-03-02T17:49:01;9.60;;;4.87;;
4595;SDS011;2310;49.978;8.742;2024-03-02T17:53:02;6.93;;;4.80;;
4595;SDS011;2310;49.978;8.742;2024-03-02T17:57:04;8.27;;;4.10;;
4595;SDS011;2310;49.978;8.742;2024-03-02T18:01:05;8.50;;;4.03;;
4595;SDS011;2310;49.978;8.742;2024-03-02T18:05:07;6.83;;;4.73;;
4595;SDS011;2310;49.978;8.742;2024-03-02T18:09:10;5.70;;;3.73;;
4595;SDS011;2310;49.978;8.742;2024-03-02T18:13:11;6.00;;;3.90;;
4595;SDS011;2310;49.978;8.742;2024-03-02T18:17:13;5.90;;;3.67;;
4595;SDS011;2310;49.978;8.742;2024-03-02T18:21:14;5.93;;;3.60;;
4595;SDS011;2310;49.978;8.742;2024-03-02T18:25:15;9.23;;;3.63;;
4595;SDS011;2310;49.978;8.742;2024-03-02T18:29:17;5.10;;;2.60;;
4595;SDS011;2310;49.978;8.742;2024-03-02T18:33:18;6.53;;;3.93;;
4595;SDS011;2310;49.978;8.742;2024-03-02T18:37:19;5.53;;;3.57;;
4595;SDS011;2310;49.978;8.742;2024-03-02T18:41:22;5.43;;;3.60;;
4595;SDS011;2310;49.978;8.742;2024-03-02T18:45:24;4.90;;;2.63;;
4595;SDS011;2310;49.978;8.742;2024-03-02T18:49:26;6.97;;;3.50;;
4595;SDS011;2310;49.978;8.742;2024-03-02T18:53:27;7.10;;;4.57;;
4595;SDS011;2310;49.978;8.742;2024-03-02T18:57:32;6.70;;;5.17;;
4595;SDS011;2310;49.978;8.742;2024-03-02T19:01:34;8.70;;;6.73;;
4595;SDS011;2310;49.978;8.742;2024-03-02T19:05:36;8.53;;;7.10;;
4595;SDS011;2310;49.978;8.742;2024-03-02T19:09:38;8.80;;;6.57;;
4595;SDS011;2310;49.978;8.742;2024-03-02T19:13:40;9.10;;;6.90;;
4595;SDS011;2310;49.978;8.742;2024-03-02T19:17:42;9.43;;;6.33;;
4595;SDS011;2310;49.978;8.742;2024-03-02T19:21:44;9.47;;;6.67;;
4595;SDS011;2310;49.978;8.742;2024-03-02T19:25:48;10.30;;;6.97;;
4595;SDS011;2310;49.978;8.742;2024-03-02T19:29:49;9.73;;;7.50;;
4595;SDS011;2310;49.978;8.742;2024-03-02T19:33:51;14.43;;;10.10;;
4595;SDS011;2310;49.978;8.742;2024-03-02T19:37:52;13.10;;;9.60;;
4595;SDS011;2310;49.978;8.742;2024-03-02T19:41:55;15.00;;;10.07;;
4595;SDS011;2310;49.978;8.742;2024-03-02T19:45:59;14.97;;;10.87;;
4595;SDS011;2310;49.978;8.742;2024-03-02T19:50:00;15.20;;;12.20;;
4595;SDS011;2310;49.978;8.742;2024-03-02T19:54:02;16.80;;;13.03;;
4595;SDS011;2310;49.978;8.742;2024-03-02T19:58:05;15.30;;;12.27;;
4595;SDS011;2310;49.978;8.742;2024-03-02T20:02:07;17.93;;;13.20;;
4595;SDS011;2310;49.978;8.742;2024-03-02T20:06:10;17.73;;;13.93;;
4595;SDS011;2310;49.978;8.742;2024-03-02T20:10:12;16.90;;;12.63;;
4595;SDS011;2310;49.978;8.742;2024-03-02T20:14:13;16.97;;;12.27;;
4595;SDS011;2310;49.978;8.742;2024-03-02T20:18:15;20.77;;;14.13;;
4595;SDS011;2310;49.978;8.742;2024-03-02T20:22:19;18.83;;;14.60;;
4595;SDS011;2310;49.978;8.742;2024-03-02T20:26:20;19.10;;;15.10;;
4595;SDS011;2310;49.978;8.742;2024-03-02T20:30:23;21.17;;;15.23;;
4595;SDS011;2310;49.978;8.742;2024-03-02T20:34:24;19.53;;;15.70;;
4595;SDS011;2310;49.978;8.742;2024-03-02T20:38:26;19.60;;;17.40;;
4595;SDS011;2310;49.978;8.742;2024-03-02T20:42:28;20.43;;;16.70;;
4595;SDS011;2310;49.978;8.742;2024-03-02T20:46:29;21.87;;;17.10;;
4595;SDS011;2310;49.978;8.742;2024-03-02T20:50:30;18.43;;;16.00;;
4595;SDS011;2310;49.978;8.742;2024-03-02T20:54:32;18.40;;;14.60;;
4595;SDS011;2310;49.978;8.742;2024-03-02T20:58:33;18.90;;;15.43;;
4595;SDS011;2310;49.978;8.742;2024-03-02T21:02:34;22.80;;;18.07;;
4595;SDS011;2310;49.978;8.742;2024-03-02T21:06:36;21.20;;;16.30;;
4595;SDS011;2310;49.978;8.742;2024-03-02T21:10:37;20.10;;;15.60;;
4595;SDS011;2310;49.978;8.742;2024-03-02T21:14:39;22.63;;;16.73;;
4595;SDS011;2310;49.978;8.742;2024-03-02T21:18:40;20.70;;;16.30;;
4595;SDS011;2310;49.978;8.742;2024-03-02T21:22:42;22.70;;;17.80;;
4595;SDS011;2310;49.978;8.742;2024-03-02T21:26:45;21.67;;;15.87;;
4595;SDS011;2310;49.978;8.742;2024-03-02T21:30:46;22.87;;;16.00;;
4595;SDS011;2310;49.978;8.742;2024-03-02T21:34:48;20.80;;;16.10;;
4595;SDS011;2310;49.978;8.742;2024-03-02T21:38:49;22.30;;;15.27;;
4595;SDS011;2310;49.978;8.742;2024-03-02T21:42:50;18.97;;;15.50;;
4595;SDS011;2310;49.978;8.742;2024-03-02T21:46:52;19.13;;;15.30;;
4595;SDS011;2310;49.978;8.742;2024-03-02T21:50:53;20.90;;;15.40;;
4595;SDS011;2310;49.978;8.742;2024-03-02T21:54:55;22.30;;;15.17;;
4595;SDS011;2310;49.978;8.742;2024-03-02T21:58:56;24.90;;;18.20;;
4595;SDS011;2310;49.978;8.742;2024-03-02T22:02:57;24.43;;;18.03;;
4595;SDS011;2310;49.978;8.742;2024-03-02T22:07:00;25.90;;;19.50;;
4595;SDS011;2310;49.978;8.742;2024-03-02T22:11:01;25.00;;;16.50;;
4595;SDS011;2310;49.978;8.742;2024-03-02T22:15:03;24.13;;;19.80;;
4595;SDS011;2310;49.978;8.742;2024-03-02T22:19:05;23.93;;;17.40;;
4595;SDS011;2310;49.978;8.742;2024-03-02T22:23:06;21.80;;;17.90;;
4595;SDS011;2310;49.978;8.742;2024-03-02T22:27:07;24.07;;;18.03;;
4595;SDS011;2310;49.978;8.742;2024-03-02T22:31:09;24.90;;;17.10;;
4595;SDS011;2310;49.978;8.742;2024-03-02T22:35:10;26.00;;;20.57;;
4595;SDS011;2310;49.978;8.742;2024-03-02T22:39:11;26.87;;;20.97;;
4595;SDS011;2310;49.978;8.742;2024-03-02T22:43:13;24.23;;;18.23;;
4595;SDS011;2310;49.978;8.742;2024-03-02T22:47:14;26.83;;;21.20;;
4595;SDS011;2310;49.978;8.742;2024-03-02T22:51:24;31.90;;;24.40;;
4595;SDS011;2310;49.978;8.742;2024-03-02T22:55:23;29.37;;;22.80;;
4595;SDS011;2310;49.978;8.742;2024-03-02T22:59:24;24.83;;;19.57;;
4595;SDS011;2310;49.978;8.742;2024-03-02T23:03:25;23.20;;;18.60;;
4595;SDS011;2310;49.978;8.742;2024-03-02T23:07:27;27.60;;;20.53;;
4595;SDS011;2310;49.978;8.742;2024-03-02T23:11:28;23.03;;;16.67;;
4595;SDS011;2310;49.978;8.742;2024-03-02T23:15:29;24.43;;;18.70;;
4595;SDS011;2310;49.978;8.742;2024-03-02T23:19:31;23.47;;;17.57;;
4595;SDS011;2310;49.978;8.742;2024-03-02T23:23:33;26.83;;;19.43;;
4595;SDS011;2310;49.978;8.742;2024-03-02T23:27:34;26.20;;;18.17;;
4595;SDS011;2310;49.978;8.742;2024-03-02T23:31:36;25.87;;;19.60;;
4595;SDS011;2310;49.978;8.742;2024-03-02T23:35:37;23.23;;;17.73;;
4595;SDS011;2310;49.978;8.742;2024-03-02T23:39:39;26.20;;;19.80;;
4595;SDS011;2310;49.978;8.742;2024-03-02T23:43:58;25.90;;;20.53;;
4595;SDS011;2310;49.978;8.742;2024-03-02T23:48:02;25.03;;;19.67;;
4595;SDS011;2310;49.978;8.742;2024-03-02T23:52:04;27.90;;;21.80;;
4595;SDS011;2310;49.978;8.742;2024-03-02T23:56:09;27.63;;;20.23;;
